Time;durP1;ratioP1;P1;durP2;ratioP2;P2;SDS_P1;SDS_P2;PMS_P1;PMS_P2;Temp;Humidity;BMP_temperature;BMP_pressure;BME280_temperature;BME280_humidity;BME280_pressure;Samples;Min_cycle;Max_cycle;Signal;HPM_P1;HPM_P2
2022/06/12 00:03:21;;;;;;;3.50;1.88;;;21.30;65.80;;;;;;10417632;28;20059;-59
2022/06/12 00:08:24;;;;;;;4.40;2.15;;;21.30;65.80;;;;;;10417684;28;20044;-59
2022/06/12 00:13:37;;;;;;;3.85;1.60;;;21.30;65.80;;;;;;10417384;28;20021;-59
2022/06/12 00:18:38;;;;;;;2.72;1.30;;;21.30;65.70;;;;;;10418590;28;20040;-59
2022/06/12 00:23:58;;;;;;;1.77;1.55;;;21.30;65.80;;;;;;10418247;28;20075;-59
2022/06/12 00:29:13;;;;;;;3.63;1.75;;;21.30;65.70;;;;;;10417331;28;20034;-59
2022/06/12 00:34:18;;;;;;;2.35;1.77;;;21.30;65.60;;;;;;10417956;28;20064;-58
2022/06/12 00:39:20;;;;;;;3.05;1.75;;;21.20;65.60;;;;;;10416524;28;20067;-60
2022/06/12 00:44:29;;;;;;;2.55;2.03;;;21.30;65.60;;;;;;10402900;28;20437;-58
2022/06/12 00:49:53;;;;;;;1.85;1.45;;;21.30;65.60;;;;;;10426014;28;20033;-59
2022/06/12 00:55:11;;;;;;;2.47;1.38;;;21.20;65.50;;;;;;10416018;28;20119;-59
2022/06/12 01:00:15;;;;;;;3.45;1.55;;;21.20;65.50;;;;;;10415929;28;20040;-59
2022/06/12 01:10:41;;;;;;;4.43;1.52;;;21.20;65.40;;;;;;10415445;28;20037;-59
2022/06/12 01:15:54;;;;;;;2.97;1.70;;;21.20;65.40;;;;;;10415935;28;20072;-59
2022/06/12 01:21:33;;;;;;;2.33;1.48;;;21.20;65.40;;;;;;10415796;28;20441;-58
2022/06/12 01:27:16;;;;;;;3.45;1.70;;;21.20;65.40;;;;;;10416018;28;20044;-59
2022/06/12 01:32:32;;;;;;;3.22;1.85;;;21.20;65.20;;;;;;10415279;28;20414;-59
2022/06/12 01:37:57;;;;;;;2.60;1.88;;;21.20;65.30;;;;;;10415412;28;20056;-59
2022/06/12 01:43:01;;;;;;;2.83;1.50;;;21.20;65.30;;;;;;10400311;28;20041;-60
2022/06/12 01:48:32;;;;;;;2.47;1.67;;;21.10;65.20;;;;;;10418094;28;20020;-60
2022/06/12 01:53:58;;;;;;;3.25;1.70;;;21.10;65.10;;;;;;10416016;28;20034;-59
2022/06/12 01:59:14;;;;;;;3.92;1.27;;;21.20;65.20;;;;;;10413616;28;20044;-59
2022/06/12 02:04:33;;;;;;;2.33;1.63;;;21.10;65.10;;;;;;10414143;28;20113;-59
2022/06/12 02:10:18;;;;;;;4.15;1.88;;;21.10;65.10;;;;;;10413070;28;20029;-59
2022/06/12 02:15:49;;;;;;;3.13;2.03;;;21.10;65.00;;;;;;10402600;28;20041;-59
2022/06/12 02:21:05;;;;;;;2.03;1.40;;;21.10;65.10;;;;;;10398244;28;20046;-59
2022/06/12 02:26:09;;;;;;;3.15;1.40;;;21.10;65.10;;;;;;10414245;28;20382;-60
2022/06/12 02:31:36;;;;;;;2.28;1.60;;;21.10;65.30;;;;;;10412721;28;20076;-58
2022/06/12 02:36:43;;;;;;;2.42;1.60;;;21.10;65.00;;;;;;10395310;28;20045;-58
2022/06/12 02:41:55;;;;;;;3.30;2.35;;;21.10;65.00;;;;;;10411811;28;20037;-60
2022/06/12 02:47:14;;;;;;;2.42;1.27;;;21.00;64.90;;;;;;10399268;28;20033;-59
2022/06/12 02:52:38;;;;;;;2.55;1.52;;;21.00;64.90;;;;;;10421623;28;20022;-59
2022/06/12 02:58:02;;;;;;;1.85;1.10;;;21.00;64.90;;;;;;10400899;28;20509;-59
2022/06/12 03:03:12;;;;;;;1.88;1.35;;;21.00;64.90;;;;;;10411208;28;20478;-58
2022/06/12 03:08:18;;;;;;;2.70;2.20;;;21.00;64.90;;;;;;10408960;28;20037;-60
2022/06/12 03:13:22;;;;;;;3.13;1.40;;;21.00;64.90;;;;;;10410831;28;20034;-58
2022/06/12 03:18:33;;;;;;;2.22;1.42;;;21.00;64.80;;;;;;10414841;28;20037;-59
2022/06/12 03:24:21;;;;;;;2.42;1.60;;;21.00;64.90;;;;;;10420591;28;20475;-60
2022/06/12 03:29:56;;;;;;;3.42;1.65;;;21.00;64.90;;;;;;10411802;28;20053;-60
2022/06/12 03:35:08;;;;;;;3.00;1.50;;;21.00;64.80;;;;;;10419918;28;20128;-59
2022/06/12 03:40:33;;;;;;;2.97;1.50;;;20.90;64.90;;;;;;10420012;28;20033;-59
2022/06/12 03:46:38;;;;;;;3.05;1.50;;;21.00;65.00;;;;;;10406514;28;20033;-59
2022/06/12 03:52:22;;;;;;;4.32;1.75;;;21.00;65.00;;;;;;10374224;28;20057;-60
2022/06/12 03:57:52;;;;;;;2.90;1.58;;;21.00;65.00;;;;;;10417760;28;20048;-59
2022/06/12 04:03:06;;;;;;;2.65;1.50;;;20.90;65.00;;;;;;10402747;28;20033;-59
2022/06/12 04:08:37;;;;;;;2.60;1.60;;;20.90;65.10;;;;;;10414547;28;20037;-59
2022/06/12 04:13:40;;;;;;;3.08;1.45;;;20.90;65.10;;;;;;10408999;28;20493;-59
2022/06/12 04:18:41;;;;;;;2.13;1.35;;;20.90;65.10;;;;;;10416049;28;20052;-58
2022/06/12 04:24:20;;;;;;;4.53;1.48;;;20.90;65.20;;;;;;10414716;28;20036;-59
2022/06/12 04:29:37;;;;;;;2.00;1.15;;;20.90;65.20;;;;;;10415326;28;20026;-59
2022/06/12 04:34:42;;;;;;;4.25;1.83;;;20.90;65.30;;;;;;10414566;28;20505;-61
2022/06/12 04:39:44;;;;;;;2.10;1.00;;;20.90;65.40;;;;;;10415325;28;20148;-59
2022/06/12 04:44:45;;;;;;;2.42;1.48;;;20.90;65.40;;;;;;10415548;28;20025;-59
2022/06/12 04:49:47;;;;;;;2.05;1.33;;;20.90;65.40;;;;;;10396230;28;20101;-58
2022/06/12 04:54:48;;;;;;;2.90;1.38;;;20.90;65.50;;;;;;10410691;28;20049;-58
2022/06/12 04:59:49;;;;;;;4.15;1.58;;;20.90;65.60;;;;;;10416453;28;20533;-54
2022/06/12 05:04:49;;;;;;;4.60;2.08;;;20.90;66.40;;;;;;10403219;28;20108;-57
2022/06/12 05:09:50;;;;;;;3.95;1.50;;;21.00;67.20;;;;;;10401279;28;20033;-57
2022/06/12 05:14:51;;;;;;;3.50;1.27;;;21.10;67.40;;;;;;10414528;28;20029;-58
2022/06/12 05:19:52;;;;;;;9.02;1.85;;;21.10;67.50;;;;;;10415700;28;20117;-59
2022/06/12 05:24:52;;;;;;;7.40;1.70;;;21.10;67.30;;;;;;10414725;28;20112;-57
2022/06/12 05:29:53;;;;;;;8.10;1.58;;;21.10;67.30;;;;;;10413168;28;20039;-58
2022/06/12 05:34:54;;;;;;;4.40;1.50;;;21.10;66.90;;;;;;10410876;28;20053;-58
2022/06/12 05:39:55;;;;;;;4.45;1.85;;;21.10;66.90;;;;;;10411563;28;20116;-58
2022/06/12 05:44:56;;;;;;;3.13;1.50;;;21.10;66.80;;;;;;10398151;28;20040;-59
2022/06/12 05:49:56;;;;;;;4.05;1.52;;;21.00;66.70;;;;;;10413516;28;20041;-58
2022/06/12 05:54:57;;;;;;;4.43;1.20;;;21.00;66.70;;;;;;10411215;28;20048;-58
2022/06/12 05:59:58;;;;;;;3.58;1.70;;;21.00;66.70;;;;;;10395861;28;20136;-58
2022/06/12 06:04:58;;;;;;;4.53;1.98;;;21.00;66.70;;;;;;10412306;28;20033;-57
2022/06/12 06:10:00;;;;;;;11.50;2.28;;;21.00;66.70;;;;;;10412710;28;20105;-58
2022/06/12 06:15:01;;;;;;;3.17;1.48;;;20.90;66.70;;;;;;10413258;28;20092;-57
2022/06/12 06:20:04;;;;;;;2.95;1.70;;;20.90;66.70;;;;;;10412173;28;20128;-58
2022/06/12 06:25:06;;;;;;;3.08;1.23;;;21.00;66.80;;;;;;10413117;28;20124;-57
2022/06/12 06:30:08;;;;;;;4.43;1.75;;;21.00;66.80;;;;;;10413085;28;20037;-58
2022/06/12 06:35:10;;;;;;;3.83;1.55;;;20.90;66.90;;;;;;10411264;28;20084;-57
2022/06/12 06:40:13;;;;;;;2.78;1.52;;;20.90;66.80;;;;;;10412883;28;20028;-57
2022/06/12 06:50:35;;;;;;;3.47;1.27;;;20.90;66.80;;;;;;10405966;28;20041;-58
2022/06/12 06:55:36;;;;;;;3.10;1.50;;;20.90;66.90;;;;;;10405232;28;20033;-58
2022/06/12 07:00:38;;;;;;;3.60;1.42;;;21.00;67.40;;;;;;10409082;28;20069;-58
2022/06/12 07:05:41;;;;;;;4.95;1.88;;;21.00;67.40;;;;;;10394681;28;20032;-58
2022/06/12 07:10:43;;;;;;;4.72;1.80;;;21.00;67.40;;;;;;10398139;28;20388;-59
2022/06/12 07:15:45;;;;;;;7.53;1.92;;;21.00;67.30;;;;;;10401358;28;20038;-59
2022/06/12 07:20:55;;;;;;;4.53;1.92;;;21.00;67.30;;;;;;10409941;28;20129;-59
2022/06/12 07:26:02;;;;;;;4.60;2.15;;;21.00;67.40;;;;;;10410905;28;20032;-58
2022/06/12 07:31:05;;;;;;;6.25;2.42;;;21.00;67.30;;;;;;10390951;28;20052;-58
2022/06/12 07:36:10;;;;;;;3.50;1.60;;;21.00;67.30;;;;;;10410748;28;20049;-58
2022/06/12 07:41:13;;;;;;;5.32;2.20;;;21.00;67.30;;;;;;10406876;28;20037;-58
2022/06/12 07:46:18;;;;;;;4.25;2.30;;;21.00;67.00;;;;;;10407164;28;20384;-57
2022/06/12 07:51:20;;;;;;;7.05;2.65;;;21.00;66.80;;;;;;10421677;28;20113;-57
2022/06/12 07:56:23;;;;;;;7.57;2.78;;;21.00;66.80;;;;;;10414926;28;20033;-56
2022/06/12 08:01:27;;;;;;;5.32;1.98;;;21.00;66.60;;;;;;10419000;28;20041;-57
2022/06/12 08:06:29;;;;;;;9.75;2.97;;;21.00;67.00;;;;;;10417438;28;20466;-57
2022/06/12 08:11:30;;;;;;;5.20;2.60;;;21.00;65.80;;;;;;10418067;28;20028;-58
2022/06/12 08:16:34;;;;;;;10.93;3.38;;;21.00;66.50;;;;;;10417499;28;20112;-59
2022/06/12 08:21:35;;;;;;;8.23;3.53;;;21.00;66.20;;;;;;10413824;28;20104;-59
2022/06/12 08:26:36;;;;;;;10.27;3.10;;;21.10;66.40;;;;;;10415782;28;20038;-59
2022/06/12 08:31:50;;;;;;;8.18;3.03;;;21.10;66.70;;;;;;10400133;28;20533;-60
2022/06/12 08:36:54;;;;;;;10.00;3.53;;;21.10;66.70;;;;;;10416261;28;20837;-60
2022/06/12 08:42:09;;;;;;;7.78;2.78;;;21.10;66.80;;;;;;10415883;28;20500;-60
2022/06/12 08:47:57;;;;;;;9.48;3.33;;;21.10;67.40;;;;;;10416744;28;20144;-62
2022/06/12 08:53:23;;;;;;;8.95;2.45;;;21.10;66.90;;;;;;10415107;28;20021;-61
2022/06/12 08:58:45;;;;;;;8.27;2.90;;;21.10;67.00;;;;;;10414574;28;20084;-58
2022/06/12 09:03:51;;;;;;;4.55;2.45;;;21.10;67.00;;;;;;10413746;28;20155;-60
2022/06/12 09:09:04;;;;;;;7.80;2.88;;;21.10;67.00;;;;;;10412873;28;20036;-60
2022/06/12 09:14:34;;;;;;;8.10;2.95;;;21.20;67.10;;;;;;10400706;28;20585;-60
2022/06/12 09:19:41;;;;;;;;;;;21.20;67.20;;;;;;10407504;28;20394;-58
2022/06/12 09:25:22;;;;;;;6.15;2.33;;;21.20;67.20;;;;;;10420840;28;20011;-61
2022/06/12 09:30:36;;;;;;;11.57;3.33;;;21.20;67.30;;;;;;10407147;28;20044;-59
2022/06/12 09:35:53;;;;;;;8.38;2.25;;;21.20;67.30;;;;;;10408112;28;20512;-59
2022/06/12 09:41:15;;;;;;;13.18;3.70;;;21.20;67.20;;;;;;10407914;28;20065;-61
2022/06/12 09:46:31;;;;;;;8.45;3.50;;;21.20;67.10;;;;;;10412556;28;20045;-60
2022/06/12 09:52:13;;;;;;;9.07;2.58;;;21.20;67.10;;;;;;10431301;28;20084;-60
2022/06/12 09:57:29;;;;;;;8.57;2.50;;;21.20;67.00;;;;;;10414182;28;20056;-59
2022/06/12 10:02:58;;;;;;;6.15;2.80;;;21.20;67.10;;;;;;10413689;28;20402;-57
2022/06/12 10:08:39;;;;;;;8.00;2.67;;;21.20;66.90;;;;;;10412407;28;20064;-59
2022/06/12 10:14:00;;;;;;;5.05;2.70;;;21.20;67.00;;;;;;10393007;28;20091;-60
2022/06/12 10:19:13;;;;;;;6.45;3.10;;;21.30;67.00;;;;;;10411464;28;20030;-60
2022/06/12 10:24:14;;;;;;;7.18;2.78;;;21.30;67.10;;;;;;10410675;28;20462;-60
2022/06/12 10:29:15;;;;;;;8.57;2.47;;;21.30;67.20;;;;;;10408672;28;20100;-59
2022/06/12 10:34:28;;;;;;;10.98;2.70;;;21.30;67.80;;;;;;10407968;28;20056;-58
2022/06/12 10:39:32;;;;;;;6.03;2.42;;;21.20;67.10;;;;;;10410992;28;20025;-60
2022/06/12 10:45:03;;;;;;;5.07;2.40;;;21.20;67.00;;;;;;10399268;28;20041;-58
2022/06/12 10:50:20;;;;;;;6.97;2.50;;;21.20;67.30;;;;;;10407292;28;20041;-60
2022/06/12 10:55:54;;;;;;;6.10;2.88;;;21.20;67.10;;;;;;10411451;28;20046;-61
2022/06/12 11:01:04;;;;;;;6.78;3.08;;;21.20;67.10;;;;;;10409970;28;20339;-60
2022/06/12 11:06:32;;;;;;;6.82;2.90;;;21.20;67.10;;;;;;10407435;28;20076;-61
2022/06/12 11:12:00;;;;;;;5.60;2.40;;;21.20;67.10;;;;;;10408799;28;20044;-60
2022/06/12 11:17:46;;;;;;;5.88;2.58;;;21.10;67.30;;;;;;10407803;28;20037;-59
2022/06/12 11:23:17;;;;;;;5.97;3.13;;;21.20;67.30;;;;;;10409177;28;20044;-60
2022/06/12 11:28:26;;;;;;;5.32;2.50;;;21.20;67.10;;;;;;10383787;28;20051;-60
2022/06/12 11:33:47;;;;;;;5.10;2.88;;;21.20;67.00;;;;;;10418754;28;20907;-60
2022/06/12 11:39:40;;;;;;;9.00;2.92;;;21.20;66.90;;;;;;10419202;28;20029;-59
2022/06/12 11:45:21;;;;;;;5.03;2.63;;;21.30;66.80;;;;;;10405282;28;20072;-60
2022/06/12 11:50:49;;;;;;;;;;;21.30;67.30;;;;;;10429085;28;20163;-60
2022/06/12 11:56:15;;;;;;;6.55;2.60;;;21.30;66.80;;;;;;10433200;28;20000;-60
2022/06/12 12:01:31;;;;;;;8.43;2.97;;;21.30;66.90;;;;;;10403803;28;20025;-60
2022/06/12 12:06:53;;;;;;;7.32;2.28;;;21.30;66.80;;;;;;10417840;28;20125;-62
2022/06/12 12:12:01;;;;;;;5.07;2.78;;;21.40;66.80;;;;;;10416861;28;20390;-60
2022/06/12 12:17:25;;;;;;;6.75;2.78;;;21.40;66.70;;;;;;10409440;28;20034;-59
2022/06/12 12:22:56;;;;;;;3.53;2.10;;;21.40;66.60;;;;;;10400406;28;20022;-60
2022/06/12 12:28:05;;;;;;;4.18;2.08;;;21.40;66.60;;;;;;10415852;28;20034;-60
2022/06/12 12:33:15;;;;;;;4.38;2.20;;;21.40;66.50;;;;;;10416156;28;20534;-59
2022/06/12 12:44:00;;;;;;;4.00;2.38;;;21.40;66.50;;;;;;10401738;28;20073;-59
2022/06/12 12:49:01;;;;;;;5.22;2.35;;;21.40;66.50;;;;;;10425483;28;20386;-60
2022/06/12 12:54:20;;;;;;;4.07;2.65;;;21.40;66.50;;;;;;10415379;28;20076;-59
2022/06/12 12:59:22;;;;;;;5.17;2.23;;;21.50;66.50;;;;;;10415139;28;20034;-59
2022/06/12 13:04:33;;;;;;;3.45;2.10;;;21.40;66.40;;;;;;10415105;28;20056;-60
2022/06/12 13:09:51;;;;;;;3.70;1.88;;;21.50;66.40;;;;;;10414118;28;20029;-60
2022/06/12 13:15:18;;;;;;;3.90;2.10;;;21.50;66.30;;;;;;10414058;28;20030;-61
2022/06/12 13:20:42;;;;;;;3.45;2.15;;;21.50;66.40;;;;;;10415136;28;20040;-60
2022/06/12 13:25:48;;;;;;;4.35;1.73;;;21.50;66.50;;;;;;10414228;28;20060;-60
2022/06/12 13:30:50;;;;;;;3.63;1.90;;;21.50;66.50;;;;;;10414068;28;20033;-60
2022/06/12 13:35:58;;;;;;;4.82;2.20;;;21.40;66.50;;;;;;10414357;28;20060;-59
2022/06/12 13:41:04;;;;;;;3.83;2.25;;;21.40;66.30;;;;;;10414070;28;20492;-59
2022/06/12 13:46:17;;;;;;;3.92;2.30;;;21.40;66.30;;;;;;10413302;28;20029;-60
2022/06/12 13:51:48;;;;;;;4.05;1.83;;;21.50;66.40;;;;;;10424890;28;20040;-60
2022/06/12 13:57:00;;;;;;;4.47;1.92;;;21.40;66.20;;;;;;10413336;28;20037;-59
2022/06/12 14:02:26;;;;;;;2.67;1.60;;;21.40;66.20;;;;;;10412901;28;20116;-59
2022/06/12 14:07:31;;;;;;;5.13;1.83;;;21.40;66.30;;;;;;10413230;28;20029;-60
2022/06/12 14:12:36;;;;;;;4.30;1.83;;;21.40;66.30;;;;;;10412898;28;20035;-60
2022/06/12 14:17:37;;;;;;;3.95;2.10;;;21.40;66.40;;;;;;10412547;28;20045;-60
2022/06/12 14:22:45;;;;;;;2.92;1.73;;;21.40;66.50;;;;;;10413536;28;20026;-60
2022/06/12 14:28:00;;;;;;;3.03;1.45;;;21.40;66.50;;;;;;10412480;28;20059;-60
2022/06/12 14:33:21;;;;;;;3.00;1.77;;;21.40;66.50;;;;;;10413024;28;20088;-60
2022/06/12 14:38:26;;;;;;;3.22;1.80;;;21.40;66.50;;;;;;10413272;28;20026;-61
2022/06/12 14:43:30;;;;;;;2.92;1.98;;;21.40;66.50;;;;;;10411745;28;20484;-61
2022/06/12 14:48:36;;;;;;;2.75;1.50;;;21.40;66.60;;;;;;10414150;28;20068;-61
2022/06/12 14:53:37;;;;;;;1.55;1.30;;;21.40;66.70;;;;;;10411552;28;20025;-61
2022/06/12 14:58:40;;;;;;;2.53;1.20;;;21.40;66.70;;;;;;10394612;28;20041;-60
2022/06/12 15:03:41;;;;;;;3.20;1.35;;;21.40;66.70;;;;;;10410615;28;20029;-61
2022/06/12 15:08:43;;;;;;;4.65;1.88;;;21.40;66.70;;;;;;10427388;28;20049;-60
2022/06/12 15:13:45;;;;;;;3.30;1.40;;;21.40;66.70;;;;;;10410695;28;20068;-60
2022/06/12 15:18:46;;;;;;;2.47;1.80;;;21.40;66.70;;;;;;10411139;28;20036;-60
2022/06/12 15:23:47;;;;;;;2.65;1.63;;;21.40;67.30;;;;;;10401028;28;20120;-60
2022/06/12 15:34:08;;;;;;;4.50;1.73;;;21.30;66.50;;;;;;10411762;28;20053;-60
2022/06/12 15:39:10;;;;;;;3.10;1.50;;;21.40;66.60;;;;;;10410616;28;20037;-61
2022/06/12 15:44:11;;;;;;;3.67;1.98;;;21.40;66.60;;;;;;10396834;28;20033;-59
2022/06/12 15:49:16;;;;;;;3.40;1.42;;;21.30;66.60;;;;;;10420550;28;20025;-61
2022/06/12 15:54:19;;;;;;;3.65;2.58;;;21.40;66.60;;;;;;10410406;28;20064;-60
2022/06/12 15:59:20;;;;;;;2.85;1.58;;;21.30;66.50;;;;;;10409978;28;20099;-61
2022/06/12 16:04:23;;;;;;;3.40;1.35;;;21.40;66.50;;;;;;10411509;28;20115;-60
2022/06/12 16:09:24;;;;;;;3.25;1.25;;;21.40;66.60;;;;;;10410088;28;20025;-61
2022/06/12 16:14:25;;;;;;;2.80;1.90;;;21.40;66.60;;;;;;10409737;28;20112;-60
2022/06/12 16:19:25;;;;;;;2.88;1.30;;;21.40;66.60;;;;;;10416491;28;20095;-60
2022/06/12 16:24:26;;;;;;;2.70;1.38;;;21.40;66.50;;;;;;10416833;28;20037;-60
2022/06/12 16:29:28;;;;;;;3.53;1.88;;;21.40;66.60;;;;;;10417077;28;20509;-61
2022/06/12 16:34:29;;;;;;;2.00;1.10;;;21.40;66.70;;;;;;10417662;28;20050;-61
2022/06/12 16:39:30;;;;;;;3.17;1.90;;;21.40;66.70;;;;;;10416231;28;20061;-61
2022/06/12 16:44:31;;;;;;;2.42;1.25;;;21.30;66.60;;;;;;10403145;28;20028;-60
2022/06/12 16:49:32;;;;;;;2.63;1.20;;;21.40;66.60;;;;;;10442560;28;20116;-60
2022/06/12 16:54:36;;;;;;;1.77;1.45;;;21.40;66.60;;;;;;10415899;28;20482;-61
2022/06/12 16:59:38;;;;;;;2.08;1.55;;;21.40;66.50;;;;;;10415745;28;20033;-61
2022/06/12 17:04:41;;;;;;;2.20;1.52;;;21.40;66.50;;;;;;10415753;28;20029;-60
2022/06/12 17:09:42;;;;;;;2.90;1.50;;;21.40;66.50;;;;;;10416493;28;20069;-60
2022/06/12 17:14:44;;;;;;;2.20;1.70;;;21.40;66.00;;;;;;10415196;28;20033;-60
2022/06/12 17:25:11;;;;;;;2.28;1.70;;;21.40;66.20;;;;;;10404647;28;20033;-61
2022/06/12 17:30:13;;;;;;;2.38;1.30;;;21.40;66.30;;;;;;10413514;28;20524;-60
2022/06/12 17:35:13;;;;;;;2.70;1.70;;;21.40;65.00;;;;;;10413827;28;20076;-62
2022/06/12 17:40:14;;;;;;;2.53;1.38;;;21.40;64.90;;;;;;10414801;28;20036;-60
2022/06/12 17:45:15;;;;;;;2.50;1.40;;;21.40;64.90;;;;;;10412936;28;20029;-62
2022/06/12 17:50:16;;;;;;;3.60;1.77;;;21.40;65.00;;;;;;10423539;28;20037;-60
2022/06/12 17:55:17;;;;;;;2.92;1.67;;;21.40;65.00;;;;;;10413127;28;20036;-60
2022/06/12 18:00:19;;;;;;;2.33;1.50;;;21.40;65.00;;;;;;10412686;28;20441;-61
2022/06/12 18:05:21;;;;;;;3.67;1.40;;;21.40;65.00;;;;;;10429114;28;20129;-61
2022/06/12 18:10:22;;;;;;;2.10;1.42;;;21.40;65.00;;;;;;10413927;28;20029;-60
2022/06/12 18:20:42;;;;;;;;;;;21.40;65.00;;;;;;10413320;28;20120;-61
2022/06/12 18:25:44;;;;;;;2.13;1.42;;;21.40;65.20;;;;;;10398708;28;19972;-60
2022/06/12 18:30:45;;;;;;;2.22;1.48;;;21.40;65.30;;;;;;10395608;28;20026;-60
2022/06/12 18:35:48;;;;;;;3.60;1.40;;;21.40;65.30;;;;;;10413436;28;20064;-60
2022/06/12 18:40:49;;;;;;;2.60;1.45;;;21.40;65.70;;;;;;10410394;28;20041;-62
2022/06/12 18:45:49;;;;;;;1.67;1.30;;;21.40;65.70;;;;;;10415713;28;20022;-61
2022/06/12 18:50:50;;;;;;;2.35;1.60;;;21.40;66.00;;;;;;10423269;28;20029;-61
2022/06/12 18:55:51;;;;;;;2.45;1.25;;;21.40;66.00;;;;;;10411511;28;20037;-61
2022/06/12 19:00:53;;;;;;;3.05;1.38;;;21.40;65.70;;;;;;10411428;28;20108;-60
2022/06/12 19:05:55;;;;;;;2.35;1.80;;;21.40;65.60;;;;;;10410119;28;20029;-60
2022/06/12 19:10:56;;;;;;;3.35;1.50;;;21.40;66.10;;;;;;10409166;28;20061;-62
2022/06/12 19:15:57;;;;;;;5.68;1.92;;;21.40;65.40;;;;;;10409547;28;20524;-58
2022/06/12 19:20:58;;;;;;;4.07;1.77;;;21.40;65.10;;;;;;10411119;28;20087;-59
2022/06/12 19:25:59;;;;;;;2.40;1.25;;;21.40;65.40;;;;;;10411545;28;20025;-57
2022/06/12 19:31:01;;;;;;;4.05;2.20;;;21.40;65.30;;;;;;10410800;28;20042;-58
2022/06/12 19:36:03;;;;;;;3.47;2.08;;;21.40;65.50;;;;;;10411303;28;20045;-59
2022/06/12 19:41:04;;;;;;;3.58;1.58;;;21.40;65.00;;;;;;10411115;28;20053;-59
2022/06/12 19:46:05;;;;;;;4.85;2.10;;;21.40;65.30;;;;;;10410326;28;20771;-58
2022/06/12 19:51:05;;;;;;;6.85;2.40;;;21.40;65.60;;;;;;10411882;28;20442;-59
2022/06/12 19:56:06;;;;;;;5.35;1.77;;;21.40;65.30;;;;;;10419005;28;20111;-60
2022/06/12 20:01:07;;;;;;;4.00;1.83;;;21.40;65.10;;;;;;10416910;28;20383;-60
2022/06/12 20:11:27;;;;;;;5.43;2.00;;;21.40;65.30;;;;;;10415001;28;20049;-61
2022/06/12 20:16:30;;;;;;;4.82;1.95;;;21.40;65.30;;;;;;10417414;28;20029;-60
2022/06/12 20:21:30;;;;;;;7.43;2.67;;;21.40;65.10;;;;;;10416356;28;20038;-60
2022/06/12 20:26:32;;;;;;;5.47;2.80;;;21.40;65.10;;;;;;10418573;28;20413;-61
2022/06/12 20:31:33;;;;;;;7.97;2.70;;;21.40;65.50;;;;;;10417050;28;20034;-62
2022/06/12 20:36:34;;;;;;;4.35;2.35;;;21.40;65.90;;;;;;10416849;28;20540;-60
2022/06/12 20:41:35;;;;;;;4.03;2.47;;;21.40;65.80;;;;;;10410627;28;20394;-61
2022/06/12 20:46:37;;;;;;;4.13;1.90;;;21.40;65.80;;;;;;10426369;28;20032;-60
2022/06/12 20:51:38;;;;;;;3.90;2.20;;;21.40;65.70;;;;;;10426374;28;20507;-61
2022/06/12 20:56:39;;;;;;;4.10;2.05;;;21.40;65.70;;;;;;10410595;28;20160;-62
2022/06/12 21:01:40;;;;;;;5.20;1.98;;;21.40;65.70;;;;;;10414500;28;20728;-61
2022/06/12 21:06:42;;;;;;;4.15;2.22;;;21.40;65.70;;;;;;10415924;28;20022;-61
2022/06/12 21:11:43;;;;;;;3.72;2.50;;;21.40;65.60;;;;;;10415630;28;20037;-60
2022/06/12 21:16:48;;;;;;;4.10;1.48;;;21.40;65.60;;;;;;10416420;28;20033;-61
2022/06/12 21:21:49;;;;;;;4.03;2.03;;;21.40;65.50;;;;;;10414971;28;20045;-60
2022/06/12 21:26:49;;;;;;;3.85;2.03;;;21.40;65.50;;;;;;10398617;28;20025;-60
2022/06/12 21:31:50;;;;;;;3.28;1.70;;;21.40;65.40;;;;;;10414701;28;20512;-60
2022/06/12 21:36:51;;;;;;;3.53;2.20;;;21.40;65.40;;;;;;10414224;28;20046;-61
2022/06/12 21:41:52;;;;;;;3.88;2.30;;;21.30;65.30;;;;;;10415387;28;20482;-61
2022/06/12 21:46:53;;;;;;;3.45;2.15;;;21.40;65.40;;;;;;10414213;28;20025;-61
2022/06/12 21:57:13;;;;;;;;;;;21.40;65.30;;;;;;10403017;28;20437;-62
2022/06/12 22:02:16;;;;;;;5.15;2.05;;;21.30;65.10;;;;;;10412725;28;19917;-60
2022/06/12 22:07:17;;;;;;;4.70;2.67;;;21.40;65.30;;;;;;10413302;28;20540;-61
2022/06/12 22:12:17;;;;;;;5.20;1.90;;;21.30;65.30;;;;;;10414337;28;20160;-60
2022/06/12 22:17:18;;;;;;;8.65;2.35;;;21.30;65.20;;;;;;10412656;28;20029;-60
2022/06/12 22:22:20;;;;;;;4.00;2.13;;;21.30;65.20;;;;;;10412409;28;20037;-61
2022/06/12 22:27:20;;;;;;;5.25;1.70;;;21.30;65.20;;;;;;10412775;28;20389;-61
2022/06/12 22:32:21;;;;;;;2.95;1.90;;;21.30;65.20;;;;;;10411997;28;20148;-62
2022/06/12 22:37:22;;;;;;;4.38;2.30;;;21.30;65.20;;;;;;10413815;28;20129;-61
2022/06/12 22:42:24;;;;;;;5.20;2.08;;;21.30;65.10;;;;;;10411936;28;20037;-61
2022/06/12 22:47:24;;;;;;;4.13;2.38;;;21.30;65.10;;;;;;10412226;28;20052;-60
2022/06/12 22:52:25;;;;;;;3.33;1.90;;;21.30;65.00;;;;;;10411776;28;20112;-61
2022/06/12 22:57:26;;;;;;;4.80;2.40;;;21.30;64.90;;;;;;10411753;28;20039;-61
2022/06/12 23:02:27;;;;;;;4.10;2.38;;;21.30;64.90;;;;;;10411456;28;20037;-61
2022/06/12 23:07:27;;;;;;;4.20;2.75;;;21.30;64.80;;;;;;10412779;28;20025;-61
2022/06/12 23:12:28;;;;;;;3.65;1.98;;;21.30;64.90;;;;;;10411904;28;20449;-60
2022/06/12 23:17:29;;;;;;;4.13;2.10;;;21.30;64.90;;;;;;10412842;28;20442;-61
2022/06/12 23:22:30;;;;;;;4.07;2.30;;;21.30;64.90;;;;;;10411564;28;20040;-61
2022/06/12 23:27:30;;;;;;;3.28;2.00;;;21.30;64.90;;;;;;10416838;28;20121;-61
2022/06/12 23:32:31;;;;;;;3.47;1.92;;;21.20;64.80;;;;;;10419272;28;20124;-60
2022/06/12 23:37:32;;;;;;;2.08;1.65;;;21.20;64.90;;;;;;10420812;28;20129;-61
2022/06/12 23:42:32;;;;;;;3.38;2.25;;;21.20;64.80;;;;;;10419108;28;20537;-61
2022/06/12 23:47:33;;;;;;;3.10;2.10;;;21.20;64.80;;;;;;10419390;28;20040;-61
2022/06/12 23:52:34;;;;;;;3.35;2.00;;;21.20;64.80;;;;;;10429297;28;20034;-61
2022/06/12 23:57:37;;;;;;;2.63;1.85;;;21.20;64.80;;;;;;10418706;28;20065;-61
